Wisdom, Missouri
Current Conditions -  °F | °C
As of 7:35 AM on Thursday 23 Oct 2014 (Local Time) from KGLY Reporting Station
Overcast Overcast  
Wind Chill: 55°   Ceiling: 4200
Heat Index: 55°   Visibility: 10mi
Dew Point: 50°   Wind: 5mph
Humidity: 82%   Direction: 170°S
Pressure: 30.14"   Gusts: NA
Location:  38.3166°N, 93.2711°W
Report Text: KGLY 231235Z AUTO 17004KT 10SM OVC042 13/10 A3014 RMK AO2
Loading
Personal Weather Stations






























Interactive Weather Map
Tropical Storm Tracking
New forecast layout! Learn more

10-Day Weather Forecast

Advertisements
Track Severe Weather on mobile